createdAt,value
2018-10-11T00:00:35.061Z,90.00
2018-10-11T00:01:13.024Z,89.90
2018-10-11T00:01:52.101Z,89.80
2018-10-11T00:02:30.025Z,89.70
2018-10-11T00:03:08.175Z,89.70
2018-10-11T00:03:46.307Z,89.80
2018-10-11T00:04:24.393Z,89.90
2018-10-11T00:05:02.373Z,89.70
2018-10-11T00:05:40.619Z,89.70
2018-10-11T00:06:18.754Z,89.70
2018-10-11T00:06:56.607Z,89.70
2018-10-11T00:07:34.509Z,89.80
2018-10-11T00:08:12.560Z,89.70
2018-10-11T00:08:50.404Z,89.50
2018-10-11T00:09:28.844Z,89.30
2018-10-11T00:10:06.768Z,89.30
2018-10-11T00:10:45.607Z,89.40
2018-10-11T00:11:23.476Z,89.50
2018-10-11T00:12:01.758Z,89.70
2018-10-11T00:12:39.666Z,90.20
2018-10-11T00:13:17.650Z,89.70
2018-10-11T00:13:55.633Z,89.60
2018-10-11T00:14:33.532Z,89.60
2018-10-11T00:15:11.430Z,89.50
2018-10-11T00:15:49.854Z,89.40
2018-10-11T00:16:27.865Z,89.30
2018-10-11T00:17:05.831Z,89.30
2018-10-11T00:17:43.820Z,89.30
2018-10-11T00:18:21.876Z,89.30
2018-10-11T00:18:59.800Z,89.20
2018-10-11T00:19:37.662Z,89.20
2018-10-11T00:20:15.562Z,89.30
2018-10-11T00:20:53.485Z,89.20
2018-10-11T00:21:31.353Z,89.20
2018-10-11T00:22:09.336Z,89.20
2018-10-11T00:22:47.372Z,89.20
2018-10-11T00:23:25.346Z,89.20
2018-10-11T00:24:03.241Z,89.20
2018-10-11T00:24:41.042Z,89.10
2018-10-11T00:25:18.961Z,89.10
2018-10-11T00:25:57.103Z,89.20
2018-10-11T00:26:35.082Z,89.60
2018-10-11T00:27:13.283Z,89.40
2018-10-11T00:27:51.259Z,89.20
2018-10-11T00:28:29.152Z,89.10
2018-10-11T00:29:07.075Z,89.10
2018-10-11T00:29:45.006Z,89.10
2018-10-11T00:30:22.983Z,89.10
2018-10-11T00:31:00.904Z,89.00
2018-10-11T00:31:38.930Z,89.00
2018-10-11T00:32:16.845Z,89.10
2018-10-11T00:32:54.803Z,89.20
2018-10-11T00:33:33.693Z,89.70
2018-10-11T00:34:11.543Z,89.20
2018-10-11T00:34:49.446Z,89.40
2018-10-11T00:35:27.318Z,89.20
2018-10-11T00:36:05.229Z,89.20
2018-10-11T00:36:43.123Z,89.20
2018-10-11T00:37:21.114Z,89.20
2018-10-11T00:38:00.232Z,89.40
2018-10-11T00:38:38.190Z,89.40
2018-10-11T00:39:16.005Z,89.50
2018-10-11T00:39:59.334Z,89.40
2018-10-11T00:40:37.241Z,89.30
2018-10-11T00:41:15.151Z,89.40
2018-10-11T00:41:53.082Z,89.30
2018-10-11T00:42:31.093Z,89.30
2018-10-11T00:43:09.305Z,89.30
2018-10-11T00:43:47.147Z,89.30
2018-10-11T00:44:26.074Z,89.40
2018-10-11T00:45:04.048Z,89.40
2018-10-11T00:45:42.018Z,89.40
2018-10-11T00:46:19.976Z,89.40
2018-10-11T00:46:57.924Z,89.40
2018-10-11T00:47:35.780Z,89.20
2018-10-11T00:48:13.966Z,89.20
2018-10-11T00:48:51.920Z,89.40
2018-10-11T00:49:30.397Z,89.40
2018-10-11T00:50:08.407Z,89.20
2018-10-11T00:50:46.338Z,89.20
2018-10-11T00:51:24.288Z,89.20
2018-10-11T00:52:02.180Z,89.30
2018-10-11T00:52:40.225Z,89.40
2018-10-11T00:53:18.189Z,89.40
2018-10-11T00:53:56.144Z,89.20
2018-10-11T00:54:34.055Z,89.50
2018-10-11T00:55:11.996Z,89.40
2018-10-11T00:55:49.948Z,89.40
2018-10-11T00:56:27.943Z,89.40
2018-10-11T00:57:06.009Z,89.20
2018-10-11T00:57:44.088Z,89.20
2018-10-11T00:58:22.274Z,89.20
2018-10-11T00:59:00.579Z,89.20
2018-10-11T00:59:39.335Z,89.20
2018-10-11T01:00:17.986Z,89.40
2018-10-11T01:00:56.701Z,89.30
2018-10-11T01:01:34.932Z,89.20
2018-10-11T01:02:13.603Z,89.90
2018-10-11T01:02:52.416Z,88.90
2018-10-11T01:03:31.011Z,88.90
2018-10-11T01:04:09.580Z,88.80
2018-10-11T01:04:48.228Z,88.70
2018-10-11T01:05:27.133Z,88.90
2018-10-11T01:06:05.509Z,89.10
2018-10-11T01:06:44.298Z,89.10
2018-10-11T01:07:23.262Z,88.90
2018-10-11T01:08:02.073Z,88.90
2018-10-11T01:08:40.952Z,88.80
2018-10-11T01:09:19.623Z,88.80
2018-10-11T01:09:58.454Z,88.80
2018-10-11T01:10:37.006Z,88.80
2018-10-11T01:11:15.822Z,88.70
2018-10-11T01:11:54.556Z,88.70
2018-10-11T01:12:33.295Z,88.70
2018-10-11T01:13:12.446Z,88.70
2018-10-11T01:13:51.354Z,88.80
2018-10-11T01:14:31.147Z,88.80
2018-10-11T01:15:09.663Z,88.70
2018-10-11T01:15:48.225Z,88.80
2018-10-11T01:16:26.824Z,88.80
2018-10-11T01:17:05.717Z,88.80
2018-10-11T01:17:44.660Z,88.90
2018-10-11T01:18:23.497Z,88.90
2018-10-11T01:19:02.248Z,88.70
2018-10-11T01:19:41.628Z,88.80
2018-10-11T01:20:20.216Z,89.00
2018-10-11T01:20:59.080Z,88.40
2018-10-11T01:21:37.913Z,88.20
2018-10-11T01:25:17.541Z,88.40
2018-10-11T01:25:56.314Z,88.10
2018-10-11T01:26:34.861Z,88.00
2018-10-11T01:27:13.028Z,88.10
2018-10-11T01:27:51.666Z,88.00
2018-10-11T01:28:30.780Z,87.80
2018-10-11T01:29:08.817Z,87.80
2018-10-11T01:29:46.777Z,87.40
2018-10-11T01:30:25.758Z,87.10
2018-10-11T01:31:08.842Z,87.40
2018-10-11T01:31:46.957Z,87.50
2018-10-11T01:32:25.170Z,87.70
2018-10-11T01:33:03.120Z,87.60
2018-10-11T01:33:41.058Z,87.60
2018-10-11T01:34:19.041Z,87.50
2018-10-11T01:34:56.950Z,87.50
2018-10-11T01:35:34.950Z,87.20
2018-10-11T01:36:12.928Z,87.00
2018-10-11T01:36:50.858Z,87.10
2018-10-11T01:37:29.736Z,87.00
2018-10-11T01:38:07.747Z,86.90
2018-10-11T01:38:45.885Z,87.00
2018-10-11T01:39:23.877Z,87.10
2018-10-11T01:40:01.752Z,86.80
2018-10-11T01:40:39.797Z,87.80
2018-10-11T01:41:17.699Z,86.70
2018-10-11T01:41:55.689Z,87.50
2018-10-11T01:42:33.718Z,86.80
2018-10-11T01:43:11.649Z,87.00
2018-10-11T01:43:49.555Z,86.90
2018-10-11T01:44:27.528Z,86.80
2018-10-11T01:45:05.367Z,86.80
2018-10-11T01:45:43.281Z,86.30
2018-10-11T01:46:21.336Z,86.00
2018-10-11T01:46:59.414Z,86.10
2018-10-11T01:47:37.261Z,85.90
2018-10-11T01:48:15.302Z,85.60
2018-10-11T01:48:53.286Z,85.70
2018-10-11T01:49:31.182Z,86.30
2018-10-11T01:50:09.552Z,85.20
2018-10-11T01:50:47.497Z,85.30
2018-10-11T01:51:26.225Z,85.50
2018-10-11T01:52:04.114Z,85.70
2018-10-11T01:52:42.136Z,85.50
2018-10-11T01:53:19.988Z,85.80
2018-10-11T01:53:59.063Z,85.60
2018-10-11T01:54:37.085Z,85.10
2018-10-11T01:55:15.036Z,85.20
2018-10-11T01:55:52.956Z,85.10
2018-10-11T01:56:31.483Z,85.00
2018-10-11T01:57:10.679Z,85.20
2018-10-11T01:57:48.616Z,85.20
2018-10-11T01:58:26.510Z,84.80
2018-10-11T01:59:04.416Z,84.60
2018-10-11T01:59:42.449Z,84.30
2018-10-11T02:00:20.484Z,84.40
2018-10-11T02:00:58.476Z,84.30
2018-10-11T02:01:36.422Z,84.00
2018-10-11T02:02:15.243Z,83.80
2018-10-11T02:02:53.199Z,83.80
2018-10-11T02:03:31.158Z,84.20
2018-10-11T02:04:09.186Z,83.90
2018-10-11T02:04:47.176Z,83.70
2018-10-11T02:05:25.147Z,83.70
2018-10-11T02:06:03.159Z,83.80
2018-10-11T02:06:41.129Z,84.00
2018-10-11T02:07:19.110Z,84.00
2018-10-11T02:07:58.034Z,83.90
2018-10-11T02:08:35.985Z,83.80
2018-10-11T02:09:13.896Z,83.90
2018-10-11T02:09:52.029Z,84.20
2018-10-11T02:10:31.053Z,84.00
2018-10-11T02:11:09.043Z,84.00
2018-10-11T02:11:46.940Z,84.30
2018-10-11T02:12:25.503Z,84.30
2018-10-11T02:13:03.372Z,84.50
2018-10-11T02:13:41.344Z,84.50
2018-10-11T02:14:19.212Z,84.40
2018-10-11T02:14:57.176Z,84.40
2018-10-11T02:15:35.144Z,84.10
2018-10-11T02:16:13.088Z,84.50
2018-10-11T02:16:51.735Z,83.90
2018-10-11T02:17:29.720Z,84.10
2018-10-11T02:18:07.699Z,84.10
2018-10-11T02:18:45.831Z,84.10
2018-10-11T02:19:23.937Z,83.90
2018-10-11T02:20:01.845Z,83.50
2018-10-11T02:20:39.820Z,83.50
2018-10-11T02:21:17.711Z,83.00
2018-10-11T02:21:55.629Z,83.90
2018-10-11T02:22:33.510Z,84.00
2018-10-11T02:23:11.512Z,83.90
2018-10-11T02:23:49.394Z,83.90
2018-10-11T02:24:27.368Z,83.80
2018-10-11T02:25:05.221Z,83.30
2018-10-11T02:25:43.310Z,82.50
2018-10-11T02:26:23.419Z,82.50
2018-10-11T02:27:01.288Z,82.70
2018-10-11T02:27:39.198Z,82.80
2018-10-11T02:28:17.210Z,82.60
2018-10-11T02:28:55.338Z,82.60
2018-10-11T02:29:33.105Z,82.70
2018-10-11T02:30:11.360Z,82.70
2018-10-11T02:30:49.257Z,82.60
2018-10-11T02:31:27.379Z,82.20
2018-10-11T02:32:05.604Z,82.50
2018-10-11T02:32:45.109Z,82.30
2018-10-11T02:33:24.656Z,82.60
2018-10-11T02:34:02.863Z,82.50
2018-10-11T02:34:40.880Z,82.50
2018-10-11T02:35:18.860Z,82.30
2018-10-11T02:35:56.997Z,82.50
2018-10-11T02:36:34.989Z,82.50
2018-10-11T02:37:13.036Z,82.10
2018-10-11T02:37:50.958Z,82.10
2018-10-11T02:38:29.104Z,82.00
2018-10-11T02:39:07.839Z,81.70
2018-10-11T02:39:45.828Z,81.50
2018-10-11T02:40:23.684Z,81.60
2018-10-11T02:41:01.823Z,81.80
2018-10-11T02:41:39.742Z,81.70
2018-10-11T02:42:19.200Z,81.70
2018-10-11T02:42:57.444Z,81.80
2018-10-11T02:43:35.340Z,81.80
2018-10-11T02:44:13.300Z,81.80
2018-10-11T02:44:51.256Z,81.60
2018-10-11T02:45:29.350Z,81.70
2018-10-11T02:46:10.876Z,81.80
2018-10-11T02:46:48.785Z,82.00
2018-10-11T02:47:26.836Z,81.90
2018-10-11T02:48:06.097Z,81.90
2018-10-11T02:48:43.996Z,81.80
2018-10-11T02:49:21.899Z,82.30
2018-10-11T02:50:00.090Z,81.40
2018-10-11T02:50:38.883Z,81.50
2018-10-11T02:51:16.868Z,81.60
2018-10-11T02:51:54.730Z,81.80
2018-10-11T02:52:32.603Z,81.80
2018-10-11T02:53:10.730Z,81.60
2018-10-11T02:53:48.895Z,81.60
2018-10-11T02:54:26.885Z,81.50
2018-10-11T02:55:04.922Z,81.50
2018-10-11T02:55:42.900Z,81.60
2018-10-11T02:56:22.257Z,81.50
2018-10-11T02:57:04.601Z,81.60
2018-10-11T02:57:51.579Z,82.30
2018-10-11T02:58:38.416Z,81.40
2018-10-11T02:59:25.352Z,80.80
2018-10-11T03:00:04.153Z,81.00
2018-10-11T03:00:43.335Z,81.00
2018-10-11T03:01:21.663Z,81.20
2018-10-11T03:01:59.840Z,81.10
2018-10-11T03:02:38.568Z,81.30
2018-10-11T03:03:17.600Z,81.50
2018-10-11T03:04:00.497Z,81.70
2018-10-11T03:04:39.560Z,81.80
2018-10-11T03:05:19.318Z,81.40
2018-10-11T03:05:57.320Z,80.70
2018-10-11T03:06:40.244Z,80.60
2018-10-11T03:07:18.700Z,80.10
2018-10-11T03:07:56.783Z,79.60
2018-10-11T03:08:35.585Z,79.20
2018-10-11T03:09:13.745Z,79.10
2018-10-11T03:09:52.212Z,79.10
2018-10-11T03:10:30.238Z,79.40
2018-10-11T03:11:08.248Z,79.40
2018-10-11T03:11:46.123Z,79.40
2018-10-11T03:12:24.044Z,79.60
2018-10-11T03:13:01.952Z,79.00
2018-10-11T03:13:39.831Z,79.20
2018-10-11T03:14:17.684Z,79.00
2018-10-11T03:14:55.530Z,79.20
2018-10-11T03:15:33.654Z,79.30
2018-10-11T03:16:11.669Z,79.30
2018-10-11T03:16:50.259Z,79.40
2018-10-11T03:17:28.190Z,79.50
2018-10-11T03:18:06.348Z,79.50
2018-10-11T03:18:44.425Z,79.80
2018-10-11T03:19:22.560Z,80.10
2018-10-11T03:20:00.537Z,80.10
2018-10-11T03:20:38.426Z,79.80
2018-10-11T03:21:16.613Z,79.60
2018-10-11T03:21:54.765Z,79.00
2018-10-11T03:22:32.889Z,78.90
2018-10-11T03:23:11.396Z,79.10
2018-10-11T03:23:49.446Z,78.90
2018-10-11T03:24:27.357Z,78.80
2018-10-11T03:25:05.224Z,78.50
2018-10-11T03:25:44.248Z,78.60
2018-10-11T03:26:22.115Z,78.80
2018-10-11T03:27:01.626Z,78.90
2018-10-11T03:27:39.608Z,78.80
2018-10-11T03:28:18.853Z,79.20
2018-10-11T03:28:56.737Z,79.30
2018-10-11T03:29:34.693Z,78.10
2018-10-11T03:30:12.625Z,78.00
2018-10-11T03:30:50.605Z,78.20
2018-10-11T03:31:28.633Z,78.20
2018-10-11T03:32:06.647Z,77.80
2018-10-11T03:32:45.636Z,77.70
2018-10-11T03:33:23.489Z,77.50
2018-10-11T03:34:01.666Z,77.70
2018-10-11T03:34:39.572Z,77.70
2018-10-11T03:35:17.497Z,77.70
2018-10-11T03:35:55.455Z,77.30
2018-10-11T03:36:33.402Z,76.90
2018-10-11T03:37:11.301Z,77.40
2018-10-11T03:37:50.344Z,77.20
2018-10-11T03:38:28.668Z,77.10
2018-10-11T03:39:07.064Z,77.10
2018-10-11T03:39:45.148Z,76.80
2018-10-11T03:40:22.941Z,77.20
2018-10-11T03:41:00.948Z,77.40
2018-10-11T03:41:38.883Z,77.60
2018-10-11T03:42:17.736Z,77.30
2018-10-11T03:42:55.846Z,77.30
2018-10-11T03:43:33.892Z,77.00
2018-10-11T03:44:11.851Z,76.70
2018-10-11T03:44:49.946Z,77.10
2018-10-11T03:45:28.601Z,77.20
2018-10-11T03:46:06.525Z,75.90
2018-10-11T03:46:44.577Z,75.40
2018-10-11T03:47:22.539Z,75.90
2018-10-11T03:48:01.233Z,75.70
2018-10-11T03:48:39.135Z,75.70
2018-10-11T03:49:17.032Z,75.80
2018-10-11T03:49:54.995Z,75.80
2018-10-11T03:50:32.900Z,75.90
2018-10-11T03:51:10.932Z,75.60
2018-10-11T03:51:48.887Z,74.80
2018-10-11T03:52:26.852Z,74.50
2018-10-11T03:53:04.844Z,74.90
2018-10-11T03:53:42.730Z,75.00
2018-10-11T03:54:20.662Z,74.60
2018-10-11T03:54:58.552Z,74.50
2018-10-11T03:55:36.474Z,74.40
2018-10-11T03:56:14.449Z,74.10
2018-10-11T03:56:52.472Z,74.60
2018-10-11T03:57:30.574Z,74.70
2018-10-11T03:58:08.513Z,74.90
2018-10-11T03:58:46.599Z,75.80
2018-10-11T03:59:24.466Z,76.20
2018-10-11T04:00:02.465Z,75.30
2018-10-11T04:00:40.410Z,74.70
2018-10-11T04:01:18.389Z,74.60
2018-10-11T04:01:56.537Z,74.00
2018-10-11T04:02:34.448Z,73.70
2018-10-11T04:03:12.478Z,73.50
2018-10-11T04:03:50.428Z,73.70
2018-10-11T04:04:28.399Z,74.10
2018-10-11T04:05:06.269Z,73.80
2018-10-11T04:05:44.612Z,74.00
2018-10-11T04:06:22.584Z,73.50
2018-10-11T04:07:00.608Z,73.00
2018-10-11T04:07:38.497Z,73.30
2018-10-11T04:08:16.744Z,73.90
2018-10-11T04:08:55.592Z,73.30
2018-10-11T04:09:33.568Z,73.50
2018-10-11T04:10:11.655Z,73.40
2018-10-11T04:10:50.061Z,73.40
2018-10-11T04:11:28.170Z,73.30
2018-10-11T04:12:06.073Z,72.90
2018-10-11T04:12:44.941Z,73.00
2018-10-11T04:13:22.932Z,73.10
2018-10-11T04:14:00.740Z,73.10
2018-10-11T04:14:38.788Z,73.20
2018-10-11T04:15:16.796Z,73.30
2018-10-11T04:15:54.682Z,73.50
2018-10-11T04:16:32.682Z,73.80
2018-10-11T04:17:10.693Z,73.90
2018-10-11T04:17:48.525Z,74.20
2018-10-11T04:18:26.379Z,74.60
2018-10-11T04:19:04.616Z,74.40
2018-10-11T04:19:42.529Z,75.20
2018-10-11T04:20:20.465Z,74.80
2018-10-11T04:20:58.385Z,75.60
2018-10-11T04:21:36.348Z,75.70
2018-10-11T04:22:14.350Z,76.40
2018-10-11T04:22:52.312Z,76.30
2018-10-11T04:23:31.853Z,76.40
2018-10-11T04:24:09.799Z,76.70
2018-10-11T04:24:47.761Z,76.50
2018-10-11T04:25:25.715Z,76.70
2018-10-11T04:26:03.625Z,76.80
2018-10-11T04:26:41.577Z,76.50
2018-10-11T04:27:19.547Z,76.60
2018-10-11T04:27:57.413Z,76.60
2018-10-11T04:28:35.355Z,76.90
2018-10-11T04:29:14.269Z,76.90
2018-10-11T04:29:52.207Z,77.10
2018-10-11T04:30:30.111Z,76.80
2018-10-11T04:31:07.969Z,76.40
2018-10-11T04:31:45.842Z,76.60
2018-10-11T04:32:23.800Z,76.20
2018-10-11T04:33:02.524Z,76.20
2018-10-11T04:33:40.364Z,76.10
2018-10-11T04:34:19.504Z,76.20
2018-10-11T04:34:57.406Z,76.40
2018-10-11T04:35:35.346Z,76.70
2018-10-11T04:36:13.206Z,76.80
2018-10-11T04:36:51.140Z,76.90
2018-10-11T04:37:29.264Z,77.10
2018-10-11T04:38:07.091Z,77.20
2018-10-11T04:38:44.929Z,77.40
2018-10-11T04:39:22.894Z,77.60
2018-10-11T04:40:01.075Z,77.50
2018-10-11T04:40:39.157Z,77.60
2018-10-11T04:42:10.858Z,77.40
2018-10-11T04:43:15.954Z,77.70
2018-10-11T04:43:53.960Z,77.40
2018-10-11T04:44:35.780Z,76.30
2018-10-11T04:45:13.666Z,75.80
2018-10-11T04:45:51.813Z,75.40
2018-10-11T04:46:30.721Z,75.40
2018-10-11T04:47:09.464Z,75.80
2018-10-11T04:47:47.403Z,76.00
2018-10-11T04:48:25.257Z,76.40
2018-10-11T04:49:03.174Z,75.30
2018-10-11T04:49:41.194Z,75.70
2018-10-11T04:50:19.157Z,76.40
2018-10-11T04:50:57.145Z,76.70
2018-10-11T04:51:34.981Z,77.00
2018-10-11T04:52:13.033Z,77.20
2018-10-11T04:52:51.008Z,77.20
2018-10-11T04:53:28.942Z,76.60
2018-10-11T04:54:06.861Z,77.30
2018-10-11T04:54:44.998Z,77.40
2018-10-11T04:55:23.071Z,76.80
2018-10-11T04:56:00.992Z,77.20
2018-10-11T04:56:39.139Z,77.50
2018-10-11T04:57:16.993Z,77.60
2018-10-11T04:57:54.918Z,77.40
2018-10-11T04:58:32.859Z,76.70
2018-10-11T04:59:11.028Z,76.90
2018-10-11T04:59:49.105Z,76.70
2018-10-11T05:00:27.767Z,76.50
2018-10-11T05:01:05.631Z,76.10
2018-10-11T05:01:43.565Z,75.00
2018-10-11T05:02:21.521Z,75.00
2018-10-11T05:03:00.336Z,75.00
2018-10-11T05:03:38.504Z,74.50
2018-10-11T05:04:16.908Z,74.40
2018-10-11T05:04:54.839Z,73.90
2018-10-11T05:05:32.830Z,74.30
2018-10-11T05:06:10.744Z,74.50
2018-10-11T05:06:48.727Z,75.10
2018-10-11T05:07:26.492Z,76.20
2018-10-11T05:08:04.327Z,76.20
2018-10-11T05:08:42.404Z,76.30
2018-10-11T05:09:20.209Z,76.50
2018-10-11T05:09:58.920Z,76.70
2018-10-11T05:10:36.927Z,76.70
2018-10-11T05:11:14.805Z,75.30
2018-10-11T05:11:52.744Z,75.70
2018-10-11T05:12:30.669Z,75.40
2018-10-11T05:13:08.661Z,75.00
2018-10-11T05:13:50.542Z,74.30
2018-10-11T05:14:28.947Z,74.10
2018-10-11T05:15:06.952Z,74.40
2018-10-11T05:15:47.520Z,74.80
2018-10-11T05:16:25.808Z,74.80
2018-10-11T05:17:04.808Z,74.60
2018-10-11T05:17:42.976Z,74.80
2018-10-11T05:18:22.897Z,74.10
2018-10-11T05:19:04.065Z,74.20
2018-10-11T05:19:42.995Z,74.00
2018-10-11T05:20:20.973Z,73.80
2018-10-11T05:20:58.883Z,73.90
2018-10-11T05:21:36.864Z,74.40
2018-10-11T05:22:14.836Z,75.00
2018-10-11T05:22:52.749Z,74.70
2018-10-11T05:23:30.620Z,74.20
2018-10-11T05:24:08.563Z,74.00
2018-10-11T05:24:46.432Z,73.80
2018-10-11T05:25:24.400Z,74.30
2018-10-11T05:26:02.288Z,74.50
2018-10-11T05:26:41.263Z,74.60
2018-10-11T05:27:19.171Z,75.60
2018-10-11T05:27:57.179Z,75.20
2018-10-11T05:28:35.113Z,75.60
2018-10-11T05:29:13.076Z,75.30
2018-10-11T05:29:51.019Z,75.50
2018-10-11T05:30:28.830Z,75.60
2018-10-11T05:31:06.975Z,76.00
2018-10-11T05:31:45.103Z,76.30
2018-10-11T05:32:23.173Z,76.10
2018-10-11T05:33:01.127Z,76.40
2018-10-11T05:33:39.549Z,76.40
2018-10-11T05:34:17.816Z,74.80
2018-10-11T05:34:55.950Z,74.40
2018-10-11T05:35:34.295Z,74.30
2018-10-11T05:36:12.337Z,74.10
2018-10-11T05:36:50.256Z,73.80
2018-10-11T05:37:28.289Z,73.50
2018-10-11T05:38:06.324Z,73.60
2018-10-11T05:38:44.639Z,73.40
2018-10-11T05:39:22.588Z,73.60
2018-10-11T05:40:00.573Z,73.70
2018-10-11T05:40:38.700Z,74.00
2018-10-11T05:41:16.644Z,74.10
2018-10-11T05:41:56.213Z,75.00
2018-10-11T05:42:34.220Z,74.60
2018-10-11T05:43:12.810Z,74.60
2018-10-11T05:43:50.809Z,74.70
2018-10-11T05:44:29.048Z,74.10
2018-10-11T05:45:11.617Z,73.90
2018-10-11T05:45:54.092Z,74.00
2018-10-11T05:46:34.045Z,74.30
2018-10-11T05:47:12.204Z,74.30
2018-10-11T05:47:50.130Z,75.30
2018-10-11T05:48:28.447Z,74.30
2018-10-11T05:49:07.656Z,74.50
2018-10-11T05:49:46.153Z,74.60
2018-10-11T05:50:24.377Z,74.50
2018-10-11T05:51:04.279Z,74.40
2018-10-11T05:51:42.290Z,74.40
2018-10-11T05:52:20.253Z,74.80
2018-10-11T05:52:58.216Z,75.70
2018-10-11T05:53:36.866Z,75.20
2018-10-11T05:54:14.772Z,75.50
2018-10-11T05:54:52.719Z,75.60
2018-10-11T05:55:30.846Z,75.60
2018-10-11T05:56:09.099Z,74.90
2018-10-11T05:56:48.506Z,74.00
2018-10-11T05:57:26.644Z,74.30
2018-10-11T05:58:04.782Z,74.40
2018-10-11T05:58:42.795Z,75.00
2018-10-11T05:59:20.882Z,74.40
2018-10-11T05:59:59.192Z,74.30
2018-10-11T06:00:37.079Z,74.20
2018-10-11T06:01:15.210Z,74.10
2018-10-11T06:01:53.329Z,74.30
2018-10-11T06:02:31.223Z,74.40
2018-10-11T06:03:09.248Z,74.30
2018-10-11T06:03:48.384Z,74.40
2018-10-11T06:04:26.213Z,74.50
2018-10-11T06:05:04.204Z,74.30
2018-10-11T06:05:42.076Z,74.30
2018-10-11T06:06:20.159Z,74.20
2018-10-11T06:06:58.064Z,74.10
2018-10-11T06:07:35.903Z,74.30
2018-10-11T06:08:13.844Z,74.80
2018-10-11T06:08:51.813Z,74.30
2018-10-11T06:09:29.966Z,74.70
2018-10-11T06:10:07.916Z,74.80
2018-10-11T06:10:47.155Z,75.00
2018-10-11T06:11:26.755Z,75.30
2018-10-11T06:12:04.994Z,75.40
2018-10-11T06:12:43.222Z,75.10
2018-10-11T06:13:21.057Z,75.50
2018-10-11T06:13:59.039Z,75.70
2018-10-11T06:14:36.976Z,75.70
2018-10-11T06:15:15.044Z,75.90
2018-10-11T06:15:53.034Z,76.10
2018-10-11T06:16:30.979Z,76.30
2018-10-11T06:17:08.984Z,76.40
2018-10-11T06:17:47.103Z,76.40
2018-10-11T06:18:25.408Z,76.60
2018-10-11T06:19:03.412Z,76.60
2018-10-11T06:19:41.248Z,76.60
2018-10-11T06:20:19.335Z,76.70
2018-10-11T06:20:57.452Z,76.70
2018-10-11T06:21:35.497Z,76.80
2018-10-11T06:22:13.413Z,76.80
2018-10-11T06:22:51.815Z,76.80
2018-10-11T06:23:29.911Z,76.90
2018-10-11T06:24:07.763Z,76.90
2018-10-11T06:24:45.801Z,77.00
2018-10-11T06:25:24.709Z,76.90
2018-10-11T06:26:02.660Z,77.10
2018-10-11T06:26:40.526Z,77.00
2018-10-11T06:27:18.448Z,77.10
2018-10-11T06:27:56.580Z,77.10
2018-10-11T06:28:34.539Z,77.10
2018-10-11T06:29:12.405Z,77.10
2018-10-11T06:29:50.285Z,77.10
2018-10-11T06:30:28.398Z,76.20
2018-10-11T06:31:06.636Z,76.20
2018-10-11T06:31:45.381Z,76.30
2018-10-11T06:32:23.317Z,76.40
2018-10-11T06:33:01.268Z,76.40
2018-10-11T06:33:39.207Z,76.50
2018-10-11T06:34:17.056Z,76.30
2018-10-11T06:34:55.108Z,75.80
2018-10-11T06:35:33.079Z,75.30
2018-10-11T06:36:10.998Z,74.60
2018-10-11T06:36:48.969Z,74.30
2018-10-11T06:37:27.065Z,74.80
2018-10-11T06:38:05.882Z,75.20
2018-10-11T06:38:43.803Z,75.30
2018-10-11T06:39:21.813Z,75.70
2018-10-11T06:40:00.734Z,75.90
2018-10-11T06:40:39.405Z,76.00
2018-10-11T06:41:17.368Z,76.00
2018-10-11T06:41:55.399Z,76.20
2018-10-11T06:42:33.586Z,76.30
2018-10-11T06:43:11.556Z,75.50
2018-10-11T06:43:49.527Z,75.60
2018-10-11T06:44:27.519Z,75.80
2018-10-11T06:45:05.862Z,75.90
2018-10-11T06:45:44.683Z,75.90
2018-10-11T06:46:22.645Z,75.90
2018-10-11T06:47:00.558Z,75.90
2018-10-11T06:47:38.559Z,75.70
2018-10-11T06:48:17.179Z,75.60
2018-10-11T06:48:55.563Z,75.90
2018-10-11T06:49:33.470Z,75.90
2018-10-11T06:50:12.270Z,75.80
2018-10-11T06:50:50.653Z,75.70
2018-10-11T06:51:28.660Z,75.90
2018-10-11T06:52:07.656Z,75.90
2018-10-11T06:52:45.589Z,75.80
2018-10-11T06:53:23.592Z,75.90
2018-10-11T06:54:01.536Z,76.00
2018-10-11T06:54:39.447Z,76.00
2018-10-11T06:55:17.417Z,76.10
2018-10-11T06:55:55.398Z,76.20
2018-10-11T06:56:33.532Z,76.30
2018-10-11T06:57:11.503Z,77.10
2018-10-11T06:57:49.384Z,76.30
2018-10-11T06:58:27.425Z,76.40
2018-10-11T06:59:05.350Z,76.40
2018-10-11T06:59:43.263Z,76.20
2018-10-11T07:00:21.208Z,76.30
2018-10-11T07:00:59.298Z,76.50
2018-10-11T07:01:37.196Z,76.70
2018-10-11T07:02:15.084Z,76.50
2018-10-11T07:02:53.005Z,76.70
2018-10-11T07:03:31.033Z,76.60
2018-10-11T07:04:09.140Z,76.50
2018-10-11T07:04:47.288Z,76.60
2018-10-11T07:05:25.369Z,76.70
2018-10-11T07:06:03.312Z,76.70
2018-10-11T07:06:41.203Z,76.70
2018-10-11T07:07:19.129Z,76.80
2018-10-11T07:07:57.199Z,76.80
2018-10-11T07:08:35.363Z,76.80
2018-10-11T07:09:13.544Z,77.00
2018-10-11T07:09:51.481Z,77.00
2018-10-11T07:10:30.396Z,76.90
2018-10-11T07:11:08.548Z,76.90
2018-10-11T07:11:46.375Z,76.70
2018-10-11T07:12:24.385Z,76.80
2018-10-11T07:13:02.287Z,76.80
2018-10-11T07:13:40.161Z,76.90
2018-10-11T07:14:18.033Z,76.90
2018-10-11T07:14:55.925Z,76.70
2018-10-11T07:15:34.818Z,76.70
2018-10-11T07:16:12.738Z,76.60
2018-10-11T07:16:50.608Z,76.70
2018-10-11T07:17:28.605Z,76.80
2018-10-11T07:18:06.542Z,76.60
2018-10-11T07:18:44.504Z,76.50
2018-10-11T07:19:22.508Z,76.50
2018-10-11T07:20:00.496Z,76.50
2018-10-11T07:20:38.502Z,76.50
2018-10-11T07:21:16.472Z,76.40
2018-10-11T07:21:54.353Z,76.30
2018-10-11T07:22:32.361Z,76.30
2018-10-11T07:23:10.293Z,76.40
2018-10-11T07:23:48.313Z,76.40
2018-10-11T07:24:26.256Z,76.30
2018-10-11T07:25:04.368Z,76.50
2018-10-11T07:25:42.417Z,76.60
2018-10-11T07:26:21.596Z,76.30
2018-10-11T07:26:59.454Z,76.20
2018-10-11T07:27:37.498Z,76.40
2018-10-11T07:28:17.097Z,76.10
2018-10-11T07:28:55.208Z,76.00
2018-10-11T07:29:33.432Z,75.70
2018-10-11T07:30:11.490Z,75.70
2018-10-11T07:30:49.577Z,75.70
2018-10-11T07:31:27.533Z,75.90
2018-10-11T07:32:05.472Z,75.70
2018-10-11T07:32:43.446Z,75.70
2018-10-11T07:33:21.365Z,75.80
2018-10-11T07:34:00.152Z,75.80
2018-10-11T07:34:38.073Z,76.00
2018-10-11T07:35:17.117Z,75.60
2018-10-11T07:35:55.100Z,76.00
2018-10-11T07:36:33.132Z,75.60
2018-10-11T07:37:10.962Z,75.50
2018-10-11T07:37:48.804Z,75.60
2018-10-11T07:38:26.724Z,75.60
2018-10-11T07:39:05.059Z,75.70
2018-10-11T07:39:42.852Z,76.00
2018-10-11T07:40:20.877Z,75.80
2018-10-11T07:40:59.039Z,75.60
2018-10-11T07:41:36.953Z,75.80
2018-10-11T07:42:14.858Z,75.90
2018-10-11T07:42:53.812Z,75.60
2018-10-11T07:43:32.776Z,75.70
2018-10-11T07:44:11.123Z,75.50
2018-10-11T07:44:49.114Z,75.90
2018-10-11T07:45:28.235Z,75.20
2018-10-11T07:46:06.281Z,74.90
2018-10-11T07:46:44.177Z,74.50
2018-10-11T07:47:22.376Z,74.60
2018-10-11T07:48:00.524Z,74.60
2018-10-11T07:48:38.397Z,74.80
2018-10-11T07:49:16.345Z,74.30
2018-10-11T07:49:58.805Z,74.30
2018-10-11T07:50:36.699Z,74.00
2018-10-11T07:51:14.624Z,74.50
2018-10-11T07:51:52.560Z,74.80
2018-10-11T07:52:30.533Z,74.60
2018-10-11T07:53:08.502Z,73.80
2018-10-11T07:53:46.580Z,73.70
2018-10-11T07:54:33.007Z,74.00
2018-10-11T07:55:10.908Z,74.50
2018-10-11T07:55:48.771Z,74.20
2018-10-11T07:56:26.663Z,74.20
2018-10-11T07:57:05.485Z,74.00
2018-10-11T07:57:43.351Z,74.40
2018-10-11T07:58:21.294Z,74.30
2018-10-11T07:58:59.775Z,74.30
2018-10-11T07:59:38.161Z,74.60
2018-10-11T08:00:16.449Z,73.90
2018-10-11T08:00:55.271Z,74.30
2018-10-11T08:01:33.660Z,74.20
2018-10-11T08:02:11.620Z,74.50
2018-10-11T08:02:49.577Z,74.30
2018-10-11T08:03:27.621Z,74.20
2018-10-11T08:04:05.634Z,74.00
2018-10-11T08:04:43.576Z,73.90
2018-10-11T08:05:21.599Z,73.60
2018-10-11T08:05:59.508Z,73.50
2018-10-11T08:06:37.515Z,73.70
2018-10-11T08:07:15.459Z,73.90
2018-10-11T08:07:53.440Z,74.20
2018-10-11T08:08:31.417Z,74.70
2018-10-11T08:09:11.207Z,74.90
2018-10-11T08:09:49.149Z,75.10
2018-10-11T08:10:27.230Z,75.30
2018-10-11T08:11:05.360Z,75.40
2018-10-11T08:11:43.360Z,75.60
2018-10-11T08:12:21.469Z,75.70
2018-10-11T08:12:59.363Z,75.70
2018-10-11T08:13:37.317Z,75.60
2018-10-11T08:14:15.329Z,75.60
2018-10-11T08:14:53.301Z,75.70
2018-10-11T08:15:31.375Z,75.70
2018-10-11T08:16:09.778Z,75.70
2018-10-11T08:16:48.099Z,75.80
2018-10-11T08:17:26.409Z,75.70